Waseca, Saskatchewan

Past 24 Hour Conditions

This table is a summary of hourly weather conditions for the past 24 hours. This summary includes the following parameters: temperature, humidity, dew point, wind speed and direction, air pressure, visibility and/or wind chill and humidex.
Date / Time
(CST)
Conditions Temp (°C) Humidity (%) Dew Point (°C) Wind (km/h) Pressure (kPa) Vis (km) Wind Chill
19 April 2014
9:00 N/A 0 94 -1 WNW 18 101.2 N/A -5
8:00 N/A 0 99 -1 W 11 101.2 N/A -4
7:00 N/A -1 99 -1 W 8 101.1 N/A -4
6:00 N/A -2   99 -2 calm 101.1 N/A *
5:00 N/A -2   99 -2 calm 101.1 N/A *
4:00 N/A -2   99 -2 NNE 4 101.1 N/A -3
3:00 N/A -1 97 -2 NNW 5 101.0 N/A -3
2:00 N/A -1 98 -1 N 4 101.0 N/A -3
1:00 N/A -1 96 -2 N 7 101.0 N/A -3
00:00 N/A -1 93 -2 NE 6 101.0 N/A -3
18 April 2014
23:00 N/A -1 93 -2 ENE 8 101.0 N/A -4
22:00 N/A -1 95 -1 ENE 13 100.9 N/A -5
21:00 N/A -1 98 -1 ENE 13 100.9 N/A -5
20:00 N/A 0 97 -1 E 14 gust 27 100.8 N/A -5
19:00 N/A 0 95 -1 E 17 100.8 N/A -5
18:00 N/A 0 90 -1 E 16 gust 28 100.8 N/A *
17:00 N/A 0 90 -1 E 18 gust 28 100.8 N/A *
16:00 N/A 1   89 -1 E 19 100.7 N/A *
15:00 N/A 1   89 -1 E 19 gust 31 100.7 N/A *
14:00 N/A 1   89 -1 E 22 gust 31 100.7 N/A *
13:00 N/A 0 89 -1 E 19 gust 32 100.7 N/A *
12:00 N/A 0 88 -2 ESE 22 gust 31 100.7 N/A -6
11:00 N/A -1 91 -2 E 22 gust 32 100.7 N/A -6
10:00 N/A -1 93 -2 ESE 21 gust 31 100.8 N/A -6
9:00 N/A -1 96 -2 ESE 19 gust 32 100.8 N/A -7
N/A
Not available
 ↑ 
Highest temperature
 ↓ 
Lowest temperature
*
Value not significant.

If you require additional historical weather information, please visit Climate Data Online.